createdAt,value
2022-08-25T00:01:38.427Z,4.50
2022-08-25T00:04:18.565Z,4.70
2022-08-25T00:06:52.821Z,4.30
2022-08-25T00:09:27.897Z,4.80
2022-08-25T00:14:53.667Z,5.00
2022-08-25T00:17:26.329Z,4.70
2022-08-25T00:19:57.601Z,4.60
2022-08-25T00:22:28.463Z,5.00
2022-08-25T00:25:00.537Z,4.20
2022-08-25T00:27:31.331Z,5.00
2022-08-25T00:30:04.041Z,4.70
2022-08-25T00:32:35.364Z,4.70
2022-08-25T00:35:11.210Z,4.60
2022-08-25T00:37:56.762Z,4.90
2022-08-25T00:40:52.659Z,4.80
2022-08-25T00:43:26.017Z,4.50
2022-08-25T00:46:08.348Z,4.80
2022-08-25T00:49:07.588Z,4.50
2022-08-25T00:51:51.765Z,5.00
2022-08-25T00:54:47.788Z,4.80
2022-08-25T00:57:34.035Z,5.00
2022-08-25T01:03:09.328Z,5.00
2022-08-25T01:05:45.891Z,4.70
2022-08-25T01:08:33.611Z,4.80
2022-08-25T01:11:08.352Z,4.90
2022-08-25T01:13:48.879Z,4.50
2022-08-25T01:16:23.609Z,5.00
2022-08-25T01:19:03.038Z,5.20
2022-08-25T01:21:46.373Z,5.10
2022-08-25T01:24:51.571Z,4.70
2022-08-25T01:27:33.941Z,5.20
2022-08-25T01:30:07.126Z,4.80
2022-08-25T01:32:35.615Z,4.70
2022-08-25T01:35:08.167Z,4.80
2022-08-25T01:37:41.464Z,4.80
2022-08-25T01:40:19.706Z,4.50
2022-08-25T01:43:28.380Z,4.20
2022-08-25T01:45:58.887Z,4.70
2022-08-25T01:48:29.666Z,4.90
2022-08-25T01:51:02.661Z,4.90
2022-08-25T01:53:33.500Z,5.10
2022-08-25T01:56:16.699Z,4.30
2022-08-25T01:58:54.834Z,4.60
2022-08-25T02:01:30.897Z,4.70
2022-08-25T02:04:09.760Z,4.90
2022-08-25T02:09:16.494Z,4.50
2022-08-25T02:11:47.669Z,4.90
2022-08-25T02:14:18.876Z,4.80
2022-08-25T02:16:51.689Z,5.40
2022-08-25T02:19:27.807Z,4.40
2022-08-25T02:22:01.634Z,4.40
2022-08-25T02:24:36.766Z,4.90
2022-08-25T02:27:17.055Z,4.60
2022-08-25T02:32:24.164Z,4.70
2022-08-25T02:34:57.435Z,4.40
2022-08-25T02:37:36.204Z,5.30
2022-08-25T02:40:07.032Z,5.30
2022-08-25T02:42:37.518Z,4.50
2022-08-25T02:45:08.145Z,4.60
2022-08-25T02:47:37.977Z,5.20
2022-08-25T02:50:07.210Z,4.50
2022-08-25T02:52:39.349Z,4.70
2022-08-25T02:55:11.519Z,6.50
2022-08-25T02:57:45.525Z,5.20
2022-08-25T03:00:18.537Z,4.20
2022-08-25T03:02:51.835Z,5.40
2022-08-25T03:05:23.492Z,5.20
2022-08-25T03:07:52.601Z,5.30
2022-08-25T03:10:35.821Z,5.60
2022-08-25T03:13:31.719Z,5.20
2022-08-25T03:16:03.212Z,5.40
2022-08-25T03:18:44.966Z,5.40
2022-08-25T03:21:18.040Z,4.70
2022-08-25T03:23:46.537Z,4.90
2022-08-25T03:26:35.300Z,4.50
2022-08-25T03:29:11.675Z,4.80
2022-08-25T03:31:40.558Z,4.90
2022-08-25T03:34:09.525Z,4.50
2022-08-25T03:36:41.326Z,4.40
2022-08-25T03:39:10.230Z,4.50
2022-08-25T03:41:39.227Z,4.60
2022-08-25T03:44:10.156Z,4.70
2022-08-25T03:46:42.311Z,5.00
2022-08-25T03:49:14.300Z,4.80
2022-08-25T03:51:51.788Z,4.20
2022-08-25T03:54:23.797Z,4.60
2022-08-25T03:56:52.755Z,4.80
2022-08-25T03:59:21.510Z,5.10
2022-08-25T04:01:54.862Z,5.30
2022-08-25T04:04:24.001Z,5.20
2022-08-25T04:06:53.650Z,4.80
2022-08-25T04:09:22.375Z,5.70
2022-08-25T04:11:51.996Z,5.60
2022-08-25T04:14:23.856Z,5.90
2022-08-25T04:19:22.425Z,8.00
2022-08-25T04:21:52.106Z,8.50
2022-08-25T04:24:25.759Z,9.40
2022-08-25T04:26:54.343Z,9.30
2022-08-25T04:29:24.473Z,8.80
2022-08-25T04:31:55.114Z,7.80
2022-08-25T04:34:26.778Z,7.30
2022-08-25T04:37:03.172Z,6.80
2022-08-25T04:39:32.505Z,6.30
2022-08-25T04:42:02.140Z,5.90
2022-08-25T04:44:32.110Z,5.80
2022-08-25T04:47:02.231Z,5.20
2022-08-25T04:49:30.702Z,5.60
2022-08-25T04:51:59.495Z,5.70
2022-08-25T04:54:28.443Z,4.90
2022-08-25T04:56:58.660Z,5.10
2022-08-25T04:59:30.416Z,5.10
2022-08-25T05:02:03.464Z,4.70
2022-08-25T05:04:34.163Z,4.90
2022-08-25T05:07:03.132Z,5.50
2022-08-25T05:09:32.974Z,4.80
2022-08-25T05:12:03.469Z,5.20
2022-08-25T05:14:32.951Z,5.10
2022-08-25T05:17:03.757Z,5.10
2022-08-25T05:19:33.014Z,5.20
2022-08-25T05:22:01.307Z,4.80
2022-08-25T05:24:32.533Z,5.60
2022-08-25T05:27:00.967Z,6.30
2022-08-25T05:29:29.322Z,5.30
2022-08-25T05:31:57.704Z,5.10
2022-08-25T05:34:27.649Z,5.20
2022-08-25T05:37:35.533Z,5.20
2022-08-25T05:40:06.516Z,5.80
2022-08-25T05:45:21.149Z,5.40
2022-08-25T05:47:55.499Z,6.00
2022-08-25T05:50:24.362Z,6.40
2022-08-25T05:52:55.316Z,6.40
2022-08-25T05:58:13.922Z,5.80
2022-08-25T06:00:58.196Z,5.80
2022-08-25T06:03:27.304Z,6.00
2022-08-25T06:06:06.048Z,5.50
2022-08-25T06:08:34.363Z,5.60
2022-08-25T06:11:04.248Z,5.30
2022-08-25T06:13:32.970Z,6.10
2022-08-25T06:16:01.621Z,6.60
2022-08-25T06:18:29.971Z,5.40
2022-08-25T06:20:58.747Z,6.70
2022-08-25T06:25:57.163Z,5.60
2022-08-25T06:28:25.970Z,5.30
2022-08-25T06:31:00.421Z,5.40
2022-08-25T06:33:28.745Z,6.00
2022-08-25T06:35:57.705Z,7.20
2022-08-25T06:38:26.044Z,6.80
2022-08-25T06:40:54.461Z,6.80
2022-08-25T06:43:36.695Z,5.70
2022-08-25T06:46:13.648Z,4.80
2022-08-25T06:48:42.443Z,6.20
2022-08-25T06:51:14.288Z,6.10
2022-08-25T06:53:44.677Z,7.40
2022-08-25T06:56:13.508Z,7.00
2022-08-25T06:58:42.486Z,7.70
2022-08-25T07:01:25.815Z,6.80
2022-08-25T07:06:40.516Z,7.20
2022-08-25T07:09:11.551Z,6.70
2022-08-25T07:11:42.425Z,6.00
2022-08-25T07:14:13.083Z,4.50
2022-08-25T07:16:48.797Z,4.60
2022-08-25T07:19:21.274Z,4.00
2022-08-25T07:24:35.074Z,6.10
2022-08-25T07:27:04.268Z,4.00
2022-08-25T07:29:36.841Z,4.50
2022-08-25T07:32:10.918Z,4.50
2022-08-25T07:34:57.785Z,4.30
2022-08-25T07:37:47.873Z,4.40
2022-08-25T07:40:22.702Z,5.00
2022-08-25T07:42:54.529Z,5.30
2022-08-25T07:45:30.672Z,4.40
2022-08-25T07:48:12.119Z,4.70
2022-08-25T07:50:45.481Z,4.00
2022-08-25T07:53:17.454Z,4.60
2022-08-25T07:55:47.592Z,4.40
2022-08-25T07:58:16.059Z,5.50
2022-08-25T08:00:48.304Z,5.50
2022-08-25T08:03:35.441Z,4.60
2022-08-25T08:06:11.930Z,4.30
2022-08-25T08:08:47.102Z,6.10
2022-08-25T08:11:17.867Z,4.30
2022-08-25T08:13:47.986Z,4.40
2022-08-25T08:16:22.463Z,4.60
2022-08-25T08:18:50.828Z,4.30
2022-08-25T08:21:26.478Z,4.30
2022-08-25T08:23:59.097Z,4.20
2022-08-25T08:26:48.102Z,4.80
2022-08-25T08:29:20.237Z,3.90
2022-08-25T08:31:50.736Z,4.40
2022-08-25T08:34:19.650Z,5.30
2022-08-25T08:36:54.312Z,5.60
2022-08-25T08:39:23.413Z,4.40
2022-08-25T08:42:19.816Z,4.30
2022-08-25T08:45:03.927Z,4.70
2022-08-25T08:47:48.958Z,4.10
2022-08-25T08:50:33.193Z,3.70
2022-08-25T08:53:08.249Z,3.70
2022-08-25T08:55:57.722Z,4.50
2022-08-25T08:58:29.790Z,4.00
2022-08-25T09:00:58.877Z,4.00
2022-08-25T09:03:30.633Z,3.90
2022-08-25T09:06:12.516Z,4.10
2022-08-25T09:08:45.016Z,4.30
2022-08-25T09:11:26.467Z,4.80
2022-08-25T09:13:57.800Z,4.10
2022-08-25T09:16:57.445Z,4.10
2022-08-25T09:19:36.673Z,4.00
2022-08-25T09:22:35.723Z,5.00
2022-08-25T09:25:29.614Z,4.90
2022-08-25T09:28:25.468Z,4.20
2022-08-25T09:31:25.230Z,4.90
2022-08-25T09:34:00.917Z,3.80
2022-08-25T09:36:53.456Z,4.10
2022-08-25T09:39:42.539Z,4.20
2022-08-25T09:42:11.017Z,4.30
2022-08-25T09:45:08.132Z,4.60
2022-08-25T09:47:43.902Z,4.10
2022-08-25T09:50:18.600Z,4.40
2022-08-25T09:52:47.212Z,4.00
2022-08-25T09:55:34.394Z,4.00
2022-08-25T09:58:16.389Z,3.90
2022-08-25T10:01:01.473Z,4.00
2022-08-25T10:03:30.865Z,4.40
2022-08-25T10:06:13.379Z,3.90
2022-08-25T10:08:44.744Z,4.20
2022-08-25T10:11:15.925Z,4.10
2022-08-25T10:14:00.811Z,3.90
2022-08-25T10:16:36.453Z,5.00
2022-08-25T10:19:13.177Z,3.80
2022-08-25T10:21:43.626Z,4.20
2022-08-25T10:24:13.510Z,3.90
2022-08-25T10:29:36.046Z,4.30
2022-08-25T10:32:16.080Z,4.20
2022-08-25T10:34:56.758Z,3.90
2022-08-25T10:37:49.642Z,3.80
2022-08-25T10:40:37.430Z,3.80
2022-08-25T10:43:31.463Z,4.00
2022-08-25T10:46:12.636Z,3.90
2022-08-25T10:49:24.296Z,3.70
2022-08-25T10:52:07.833Z,4.60
2022-08-25T10:54:54.834Z,4.30
2022-08-25T10:57:23.890Z,4.20
2022-08-25T11:00:11.074Z,4.50
2022-08-25T11:03:17.027Z,3.90
2022-08-25T11:05:49.200Z,3.90
2022-08-25T11:08:33.857Z,4.20
2022-08-25T11:11:29.366Z,4.10
2022-08-25T11:14:00.334Z,3.40
2022-08-25T11:16:37.529Z,3.80
2022-08-25T11:19:09.952Z,3.80
2022-08-25T11:21:46.991Z,4.30
2022-08-25T11:24:32.289Z,3.90
2022-08-25T11:27:10.448Z,4.00
2022-08-25T11:29:48.949Z,3.50
2022-08-25T11:32:21.270Z,3.90
2022-08-25T11:34:49.830Z,4.60
2022-08-25T11:37:27.438Z,4.10
2022-08-25T11:40:13.828Z,4.10
2022-08-25T11:43:08.076Z,4.60
2022-08-25T11:45:54.410Z,3.90
2022-08-25T11:48:35.734Z,3.70
2022-08-25T11:51:28.225Z,3.80
2022-08-25T11:54:27.568Z,4.20
2022-08-25T11:57:18.212Z,4.40
2022-08-25T11:59:49.815Z,5.70
2022-08-25T12:02:46.126Z,5.70
2022-08-25T12:05:17.357Z,5.10
2022-08-25T12:07:48.693Z,4.60
2022-08-25T12:10:26.132Z,4.50
2022-08-25T12:13:24.421Z,4.60
2022-08-25T12:15:52.771Z,4.10
2022-08-25T12:18:24.663Z,4.10
2022-08-25T12:20:56.440Z,5.40
2022-08-25T12:24:06.038Z,4.70
2022-08-25T12:27:01.788Z,4.30
2022-08-25T12:29:47.709Z,5.10
2022-08-25T12:32:34.847Z,4.70
2022-08-25T12:35:24.970Z,4.20
2022-08-25T12:38:09.250Z,4.00
2022-08-25T12:40:54.913Z,4.20
2022-08-25T12:43:33.429Z,4.20
2022-08-25T12:46:21.369Z,4.20
2022-08-25T12:49:29.065Z,4.70
2022-08-25T12:52:16.921Z,5.80
2022-08-25T12:55:03.839Z,4.40
2022-08-25T12:57:58.692Z,4.60
2022-08-25T13:00:32.985Z,4.30
2022-08-25T13:03:19.591Z,4.60
2022-08-25T13:06:06.479Z,4.20
2022-08-25T13:09:02.961Z,4.60
2022-08-25T13:12:11.193Z,5.10
2022-08-25T13:14:44.068Z,4.60
2022-08-25T13:17:26.098Z,4.80
2022-08-25T13:20:24.034Z,4.70
2022-08-25T13:22:57.900Z,4.40
2022-08-25T13:25:32.807Z,5.00
2022-08-25T13:28:04.909Z,5.00
2022-08-25T13:30:37.163Z,6.00
2022-08-25T13:33:26.135Z,5.70
2022-08-25T13:36:16.089Z,4.70
2022-08-25T13:38:47.353Z,5.60
2022-08-25T13:41:29.187Z,5.70
2022-08-25T13:43:58.995Z,4.90
2022-08-25T13:46:30.888Z,4.80
2022-08-25T13:49:08.782Z,5.40
2022-08-25T13:51:42.093Z,5.10
2022-08-25T13:54:26.682Z,5.60
2022-08-25T13:56:55.332Z,5.30
2022-08-25T13:59:34.362Z,5.40
2022-08-25T14:02:15.212Z,6.10
2022-08-25T14:04:51.664Z,6.10
2022-08-25T14:07:23.259Z,5.50
2022-08-25T14:10:01.483Z,6.40
2022-08-25T14:12:49.693Z,5.50
2022-08-25T14:15:18.124Z,6.10
2022-08-25T14:18:03.163Z,6.30
2022-08-25T14:20:34.191Z,6.40
2022-08-25T14:23:05.803Z,6.70
2022-08-25T14:25:40.489Z,5.70
2022-08-25T14:28:14.546Z,5.80
2022-08-25T14:30:47.683Z,6.70
2022-08-25T14:33:19.794Z,7.00
2022-08-25T14:35:54.926Z,5.90
2022-08-25T14:38:24.432Z,6.10
2022-08-25T14:40:54.053Z,6.70
2022-08-25T14:43:24.111Z,7.50
2022-08-25T14:46:25.873Z,6.30
2022-08-25T14:49:01.696Z,5.80
2022-08-25T14:51:33.000Z,5.80
2022-08-25T14:54:05.360Z,6.80
2022-08-25T14:56:34.611Z,6.40
2022-08-25T14:59:05.120Z,6.90
2022-08-25T15:01:34.153Z,6.80
2022-08-25T15:07:23.478Z,6.60
2022-08-25T15:09:52.811Z,6.80
2022-08-25T15:15:11.680Z,6.40
2022-08-25T15:17:44.634Z,6.20
2022-08-25T15:20:14.375Z,6.30
2022-08-25T15:22:45.553Z,6.00
2022-08-25T15:25:15.012Z,6.50
2022-08-25T15:27:43.590Z,6.10
2022-08-25T15:32:48.718Z,5.40
2022-08-25T15:35:22.560Z,5.60
2022-08-25T15:38:11.406Z,5.60
2022-08-25T15:40:40.001Z,6.50
2022-08-25T15:43:08.221Z,5.80
2022-08-25T15:48:09.694Z,4.90
2022-08-25T15:50:41.180Z,5.80
2022-08-25T15:53:10.638Z,5.00
2022-08-25T15:55:40.619Z,5.30
2022-08-25T15:58:09.108Z,5.00
2022-08-25T16:00:37.569Z,5.50
2022-08-25T16:03:08.223Z,5.20
2022-08-25T16:05:38.896Z,5.70
2022-08-25T16:08:19.337Z,4.50
2022-08-25T16:10:48.209Z,5.20
2022-08-25T16:13:18.590Z,5.10
2022-08-25T16:15:53.168Z,5.20
2022-08-25T16:18:24.120Z,5.20
2022-08-25T16:23:35.982Z,4.40
2022-08-25T16:26:09.081Z,6.10
2022-08-25T16:28:43.767Z,4.10
2022-08-25T16:31:15.841Z,4.90
2022-08-25T16:33:45.491Z,4.40
2022-08-25T16:36:28.231Z,4.40
2022-08-25T16:38:57.881Z,5.00
2022-08-25T16:41:34.554Z,4.10
2022-08-25T16:44:11.141Z,4.40
2022-08-25T16:46:42.086Z,3.80
2022-08-25T16:49:15.889Z,4.40
2022-08-25T16:51:44.334Z,4.20
2022-08-25T16:54:31.256Z,4.60
2022-08-25T16:56:59.587Z,4.40
2022-08-25T16:59:28.564Z,5.40
2022-08-25T17:01:56.851Z,3.80
2022-08-25T17:04:31.901Z,3.80
2022-08-25T17:07:01.833Z,3.90
2022-08-25T17:09:31.019Z,4.00
2022-08-25T17:11:59.393Z,3.70
2022-08-25T17:14:27.803Z,4.50
2022-08-25T17:16:56.527Z,18.20
2022-08-25T17:19:27.930Z,8.90
2022-08-25T17:21:58.567Z,7.80
2022-08-25T17:24:29.344Z,5.00
2022-08-25T17:26:58.881Z,4.20
2022-08-25T17:29:27.407Z,3.90
2022-08-25T17:31:55.650Z,3.60
2022-08-25T17:34:23.911Z,5.10
2022-08-25T17:36:54.241Z,4.00
2022-08-25T17:39:23.250Z,3.70
2022-08-25T17:41:52.893Z,4.10
2022-08-25T17:44:21.223Z,4.20
2022-08-25T17:46:54.568Z,4.80
2022-08-25T17:49:24.077Z,5.60
2022-08-25T17:51:52.753Z,4.40
2022-08-25T17:54:21.716Z,4.80
2022-08-25T17:56:50.285Z,4.50
2022-08-25T17:59:28.170Z,4.20
2022-08-25T18:02:00.973Z,4.20
2022-08-25T18:04:29.595Z,4.60
2022-08-25T18:07:01.135Z,4.30
2022-08-25T18:09:33.471Z,4.70
2022-08-25T18:12:12.614Z,4.40
2022-08-25T18:14:54.612Z,4.70
2022-08-25T18:17:27.939Z,4.00
2022-08-25T18:20:02.682Z,4.00
2022-08-25T18:22:41.051Z,5.90
2022-08-25T18:25:15.295Z,5.20
2022-08-25T18:27:45.352Z,5.80
2022-08-25T18:30:14.246Z,4.50
2022-08-25T18:32:43.018Z,5.30
2022-08-25T18:35:12.637Z,4.20
2022-08-25T18:38:04.659Z,4.50
2022-08-25T18:40:35.575Z,5.20
2022-08-25T18:43:10.269Z,4.60
2022-08-25T18:45:51.845Z,5.70
2022-08-25T18:48:26.574Z,5.60
2022-08-25T18:50:58.090Z,6.70
2022-08-25T18:53:37.470Z,7.10
2022-08-25T18:56:42.763Z,6.60
2022-08-25T19:02:27.362Z,5.60
2022-08-25T19:04:58.284Z,5.60
2022-08-25T19:10:57.740Z,5.50
2022-08-25T19:13:33.336Z,5.60
2022-08-25T19:16:13.912Z,5.50
2022-08-25T19:18:52.368Z,6.40
2022-08-25T19:21:23.864Z,6.90
2022-08-25T19:23:55.713Z,5.20
2022-08-25T19:26:26.971Z,6.20
2022-08-25T19:29:01.494Z,5.80
2022-08-25T19:31:34.507Z,6.00
2022-08-25T19:34:32.165Z,5.70
2022-08-25T19:37:04.456Z,5.90
2022-08-25T19:39:39.222Z,5.90
2022-08-25T19:42:36.745Z,6.50
2022-08-25T19:45:13.193Z,6.60
2022-08-25T19:47:42.257Z,6.60
2022-08-25T19:50:26.863Z,7.10
2022-08-25T19:52:58.267Z,6.20
2022-08-25T19:55:30.067Z,6.50
2022-08-25T19:58:01.431Z,6.90
2022-08-25T20:00:40.470Z,6.90
2022-08-25T20:03:14.744Z,6.20
2022-08-25T20:05:50.319Z,6.80
2022-08-25T20:08:29.826Z,6.80
2022-08-25T20:11:01.909Z,6.80
2022-08-25T20:13:35.497Z,6.60
2022-08-25T20:16:11.294Z,7.00
2022-08-25T20:18:42.786Z,6.50
2022-08-25T20:21:22.180Z,5.80
2022-08-25T20:24:13.810Z,5.80
2022-08-25T20:27:07.678Z,6.40
2022-08-25T20:29:40.623Z,6.40
2022-08-25T20:32:20.003Z,6.70
2022-08-25T20:34:48.547Z,6.20
2022-08-25T20:37:26.723Z,7.00
2022-08-25T20:40:15.467Z,7.20
2022-08-25T20:43:14.659Z,7.10
2022-08-25T20:45:47.431Z,5.60
2022-08-25T20:48:19.194Z,6.10
2022-08-25T20:50:57.543Z,6.60
2022-08-25T20:56:21.979Z,6.50
2022-08-25T20:58:52.854Z,6.60
2022-08-25T21:01:42.389Z,6.30
2022-08-25T21:04:21.871Z,6.20
2022-08-25T21:07:05.424Z,6.10
2022-08-25T21:09:40.640Z,5.70
2022-08-25T21:12:09.393Z,5.80
2022-08-25T21:17:31.051Z,5.70
2022-08-25T21:20:14.738Z,5.70
2022-08-25T21:22:44.626Z,6.00
2022-08-25T21:25:16.315Z,6.10
2022-08-25T21:27:47.959Z,6.30
2022-08-25T21:30:17.526Z,6.30
2022-08-25T21:32:52.983Z,5.80
2022-08-25T21:35:27.451Z,6.30
2022-08-25T21:38:04.029Z,5.10
2022-08-25T21:40:38.891Z,5.00
2022-08-25T21:43:12.071Z,5.70
2022-08-25T21:45:50.712Z,4.70
2022-08-25T21:48:19.969Z,4.70
2022-08-25T21:50:51.645Z,5.00
2022-08-25T21:53:33.994Z,5.20
2022-08-25T21:56:23.079Z,5.50
2022-08-25T21:58:54.593Z,5.10
2022-08-25T22:01:27.840Z,5.50
2022-08-25T22:03:56.338Z,5.20
2022-08-25T22:06:24.988Z,5.00
2022-08-25T22:09:39.073Z,5.00
2022-08-25T22:12:10.894Z,4.90
2022-08-25T22:17:33.607Z,4.90
2022-08-25T22:20:03.964Z,5.20
2022-08-25T22:23:06.065Z,5.60
2022-08-25T22:27:15.426Z,5.20
2022-08-25T22:29:45.993Z,5.00
2022-08-25T22:32:18.041Z,5.50
2022-08-25T22:34:47.983Z,4.60
2022-08-25T22:37:18.047Z,4.90
2022-08-25T22:42:15.691Z,5.20
2022-08-25T22:44:44.659Z,5.30
2022-08-25T22:47:14.800Z,4.60
2022-08-25T22:49:43.453Z,5.30
2022-08-25T22:52:13.125Z,5.10
2022-08-25T22:54:44.583Z,4.90
2022-08-25T22:57:13.240Z,5.30
2022-08-25T22:59:43.267Z,5.10
2022-08-25T23:02:11.535Z,7.00
2022-08-25T23:04:41.503Z,4.80
2022-08-25T23:07:11.915Z,5.10
2022-08-25T23:12:29.686Z,4.80
2022-08-25T23:14:58.137Z,5.10
2022-08-25T23:17:40.325Z,5.10
2022-08-25T23:20:29.279Z,5.40
2022-08-25T23:25:32.008Z,4.90
2022-08-25T23:28:14.265Z,5.00
2022-08-25T23:30:44.958Z,5.70
2022-08-25T23:33:27.395Z,4.60
2022-08-25T23:36:00.806Z,4.70
2022-08-25T23:38:51.757Z,5.10
2022-08-25T23:41:54.195Z,4.40
2022-08-25T23:44:23.488Z,4.40
2022-08-25T23:46:54.833Z,3.80
2022-08-25T23:49:24.337Z,4.80
2022-08-25T23:51:57.008Z,4.50
2022-08-25T23:54:31.167Z,5.50
2022-08-25T23:57:00.476Z,5.10
2022-08-25T23:59:43.871Z,5.20
